sensor_id;sensor_type;location;lat;lon;timestamp;temperature;humidity
11536;DHT22;5824;49.336;8.652;2023-03-01T00:00:46;2.50;1.00
11536;DHT22;5824;49.336;8.652;2023-03-01T00:03:12;2.50;1.00
11536;DHT22;5824;49.336;8.652;2023-03-01T00:05:46;2.90;1.00
11536;DHT22;5824;49.336;8.652;2023-03-01T00:08:12;2.60;1.00
11536;DHT22;5824;49.336;8.652;2023-03-01T00:10:37;2.60;1.00
11536;DHT22;5824;49.336;8.652;2023-03-01T00:13:03;2.60;1.00
11536;DHT22;5824;49.336;8.652;2023-03-01T00:15:31;2.60;1.00
11536;DHT22;5824;49.336;8.652;2023-03-01T00:17:56;2.60;1.00
11536;DHT22;5824;49.336;8.652;2023-03-01T00:20:22;3.00;1.00
11536;DHT22;5824;49.336;8.652;2023-03-01T00:22:48;2.60;1.00
11536;DHT22;5824;49.336;8.652;2023-03-01T00:25:13;2.60;1.00
11536;DHT22;5824;49.336;8.652;2023-03-01T00:27:38;2.60;1.00
11536;DHT22;5824;49.336;8.652;2023-03-01T00:30:04;2.60;1.00
11536;DHT22;5824;49.336;8.652;2023-03-01T00:32:30;2.60;1.00
11536;DHT22;5824;49.336;8.652;2023-03-01T00:34:56;2.60;1.00
11536;DHT22;5824;49.336;8.652;2023-03-01T00:37:22;2.60;1.00
11536;DHT22;5824;49.336;8.652;2023-03-01T00:39:48;2.60;1.00
11536;DHT22;5824;49.336;8.652;2023-03-01T00:42:14;2.60;1.00
11536;DHT22;5824;49.336;8.652;2023-03-01T00:44:40;2.70;1.00
11536;DHT22;5824;49.336;8.652;2023-03-01T00:47:05;2.50;1.00
11536;DHT22;5824;49.336;8.652;2023-03-01T00:49:31;2.90;1.00
11536;DHT22;5824;49.336;8.652;2023-03-01T00:51:56;2.50;1.00
11536;DHT22;5824;49.336;8.652;2023-03-01T00:54:22;2.50;1.00
11536;DHT22;5824;49.336;8.652;2023-03-01T00:56:47;2.50;1.00
11536;DHT22;5824;49.336;8.652;2023-03-01T00:59:13;2.50;1.00
11536;DHT22;5824;49.336;8.652;2023-03-01T01:01:39;2.50;1.00
11536;DHT22;5824;49.336;8.652;2023-03-01T01:04:10;2.40;1.00
11536;DHT22;5824;49.336;8.652;2023-03-01T01:06:38;2.80;1.00
11536;DHT22;5824;49.336;8.652;2023-03-01T01:09:05;2.40;1.00
11536;DHT22;5824;49.336;8.652;2023-03-01T01:11:32;2.80;1.00
11536;DHT22;5824;49.336;8.652;2023-03-01T01:13:58;2.30;1.00
11536;DHT22;5824;49.336;8.652;2023-03-01T01:16:25;2.60;1.00
11536;DHT22;5824;49.336;8.652;2023-03-01T01:18:52;2.50;1.00
11536;DHT22;5824;49.336;8.652;2023-03-01T01:21:20;2.40;1.00
11536;DHT22;5824;49.336;8.652;2023-03-01T01:23:46;2.10;1.00
11536;DHT22;5824;49.336;8.652;2023-03-01T01:26:16;2.10;1.00
11536;DHT22;5824;49.336;8.652;2023-03-01T01:28:43;2.10;1.00
11536;DHT22;5824;49.336;8.652;2023-03-01T01:31:08;2.10;1.00
11536;DHT22;5824;49.336;8.652;2023-03-01T01:33:34;2.60;1.00
11536;DHT22;5824;49.336;8.652;2023-03-01T01:36:00;2.50;1.00
11536;DHT22;5824;49.336;8.652;2023-03-01T01:38:25;2.10;1.00
11536;DHT22;5824;49.336;8.652;2023-03-01T01:40:58;2.10;1.00
11536;DHT22;5824;49.336;8.652;2023-03-01T01:43:26;2.30;1.00
11536;DHT22;5824;49.336;8.652;2023-03-01T01:46:04;2.50;1.00
11536;DHT22;5824;49.336;8.652;2023-03-01T01:48:40;2.30;1.00
11536;DHT22;5824;49.336;8.652;2023-03-01T01:51:11;2.20;1.00
11536;DHT22;5824;49.336;8.652;2023-03-01T01:53:39;2.50;1.00
11536;DHT22;5824;49.336;8.652;2023-03-01T01:56:07;2.00;1.00
11536;DHT22;5824;49.336;8.652;2023-03-01T01:58:34;2.00;1.00
11536;DHT22;5824;49.336;8.652;2023-03-01T02:01:00;2.00;1.00
11536;DHT22;5824;49.336;8.652;2023-03-01T02:03:30;2.00;1.00
11536;DHT22;5824;49.336;8.652;2023-03-01T02:06:07;2.00;1.00
11536;DHT22;5824;49.336;8.652;2023-03-01T02:08:38;2.00;1.00
11536;DHT22;5824;49.336;8.652;2023-03-01T02:11:07;2.30;1.00
11536;DHT22;5824;49.336;8.652;2023-03-01T02:13:33;1.90;1.00
11536;DHT22;5824;49.336;8.652;2023-03-01T02:16:03;1.90;1.00
11536;DHT22;5824;49.336;8.652;2023-03-01T02:18:29;1.90;1.00
11536;DHT22;5824;49.336;8.652;2023-03-01T02:21:21;1.90;1.00
11536;DHT22;5824;49.336;8.652;2023-03-01T02:23:48;1.80;1.00
11536;DHT22;5824;49.336;8.652;2023-03-01T02:26:40;2.20;1.00
11536;DHT22;5824;49.336;8.652;2023-03-01T02:29:07;1.80;1.00
11536;DHT22;5824;49.336;8.652;2023-03-01T02:31:33;2.10;1.00
11536;DHT22;5824;49.336;8.652;2023-03-01T02:34:10;2.10;1.00
11536;DHT22;5824;49.336;8.652;2023-03-01T02:36:40;2.20;1.00
11536;DHT22;5824;49.336;8.652;2023-03-01T02:39:07;1.80;1.00
11536;DHT22;5824;49.336;8.652;2023-03-01T02:41:41;1.80;1.00
11536;DHT22;5824;49.336;8.652;2023-03-01T02:44:08;1.80;1.00
11536;DHT22;5824;49.336;8.652;2023-03-01T02:46:33;2.20;1.00
11536;DHT22;5824;49.336;8.652;2023-03-01T02:48:59;2.00;1.00
11536;DHT22;5824;49.336;8.652;2023-03-01T02:51:48;1.80;1.00
11536;DHT22;5824;49.336;8.652;2023-03-01T02:54:40;1.80;1.00
11536;DHT22;5824;49.336;8.652;2023-03-01T02:57:07;1.80;1.00
11536;DHT22;5824;49.336;8.652;2023-03-01T02:59:34;1.80;1.00
11536;DHT22;5824;49.336;8.652;2023-03-01T03:02:06;2.20;1.00
11536;DHT22;5824;49.336;8.652;2023-03-01T03:04:31;2.30;1.00
11536;DHT22;5824;49.336;8.652;2023-03-01T03:06:57;1.80;1.00
11536;DHT22;5824;49.336;8.652;2023-03-01T03:09:22;1.80;1.00
11536;DHT22;5824;49.336;8.652;2023-03-01T03:11:48;1.80;1.00
11536;DHT22;5824;49.336;8.652;2023-03-01T03:14:15;1.80;1.00
11536;DHT22;5824;49.336;8.652;2023-03-01T03:16:43;1.80;1.00
11536;DHT22;5824;49.336;8.652;2023-03-01T03:19:09;1.80;1.00
11536;DHT22;5824;49.336;8.652;2023-03-01T03:21:35;2.20;1.00
11536;DHT22;5824;49.336;8.652;2023-03-01T03:24:01;1.70;1.00
11536;DHT22;5824;49.336;8.652;2023-03-01T03:26:26;2.10;1.00
11536;DHT22;5824;49.336;8.652;2023-03-01T03:28:52;1.70;1.00
11536;DHT22;5824;49.336;8.652;2023-03-01T03:31:18;1.70;1.00
11536;DHT22;5824;49.336;8.652;2023-03-01T03:33:43;2.20;1.00
11536;DHT22;5824;49.336;8.652;2023-03-01T03:36:09;1.60;1.00
11536;DHT22;5824;49.336;8.652;2023-03-01T03:38:38;1.60;1.00
11536;DHT22;5824;49.336;8.652;2023-03-01T03:41:06;1.60;1.00
11536;DHT22;5824;49.336;8.652;2023-03-01T03:43:34;1.60;1.00
11536;DHT22;5824;49.336;8.652;2023-03-01T03:46:01;1.60;1.00
11536;DHT22;5824;49.336;8.652;2023-03-01T03:48:31;1.90;1.00
11536;DHT22;5824;49.336;8.652;2023-03-01T03:50:58;1.90;1.00
11536;DHT22;5824;49.336;8.652;2023-03-01T03:53:25;2.00;1.00
11536;DHT22;5824;49.336;8.652;2023-03-01T03:55:52;2.00;1.00
11536;DHT22;5824;49.336;8.652;2023-03-01T03:58:19;1.50;1.00
11536;DHT22;5824;49.336;8.652;2023-03-01T04:00:46;1.50;1.00
11536;DHT22;5824;49.336;8.652;2023-03-01T04:03:14;1.60;1.00
11536;DHT22;5824;49.336;8.652;2023-03-01T04:05:41;1.40;1.00
11536;DHT22;5824;49.336;8.652;2023-03-01T04:08:07;2.00;1.00
11536;DHT22;5824;49.336;8.652;2023-03-01T04:10:39;1.50;1.00
11536;DHT22;5824;49.336;8.652;2023-03-01T04:13:06;1.50;1.00
11536;DHT22;5824;49.336;8.652;2023-03-01T04:15:33;1.50;1.00
11536;DHT22;5824;49.336;8.652;2023-03-01T04:17:59;2.00;1.00
11536;DHT22;5824;49.336;8.652;2023-03-01T04:20:28;1.90;1.00
11536;DHT22;5824;49.336;8.652;2023-03-01T04:23:02;1.50;1.00
11536;DHT22;5824;49.336;8.652;2023-03-01T04:25:44;1.50;1.00
11536;DHT22;5824;49.336;8.652;2023-03-01T04:28:10;2.00;1.00
11536;DHT22;5824;49.336;8.652;2023-03-01T04:30:37;1.90;1.00
11536;DHT22;5824;49.336;8.652;2023-03-01T04:33:05;1.80;1.00
11536;DHT22;5824;49.336;8.652;2023-03-01T04:35:31;1.40;1.00
11536;DHT22;5824;49.336;8.652;2023-03-01T04:37:57;1.40;1.00
11536;DHT22;5824;49.336;8.652;2023-03-01T04:40:22;1.80;1.00
11536;DHT22;5824;49.336;8.652;2023-03-01T04:42:48;1.50;1.00
11536;DHT22;5824;49.336;8.652;2023-03-01T04:45:13;1.80;1.00
11536;DHT22;5824;49.336;8.652;2023-03-01T04:47:40;1.50;1.00
11536;DHT22;5824;49.336;8.652;2023-03-01T04:50:06;1.80;1.00
11536;DHT22;5824;49.336;8.652;2023-03-01T04:52:33;1.50;1.00
11536;DHT22;5824;49.336;8.652;2023-03-01T04:54:58;1.60;1.00
11536;DHT22;5824;49.336;8.652;2023-03-01T04:57:24;1.50;1.00
11536;DHT22;5824;49.336;8.652;2023-03-01T04:59:49;1.90;1.00
11536;DHT22;5824;49.336;8.652;2023-03-01T05:02:14;1.60;1.00
11536;DHT22;5824;49.336;8.652;2023-03-01T05:04:40;1.90;1.00
11536;DHT22;5824;49.336;8.652;2023-03-01T05:07:05;1.90;1.00
11536;DHT22;5824;49.336;8.652;2023-03-01T05:11:57;1.30;1.00
11536;DHT22;5824;49.336;8.652;2023-03-01T05:14:22;1.30;1.00
11536;DHT22;5824;49.336;8.652;2023-03-01T05:16:48;1.40;1.00
11536;DHT22;5824;49.336;8.652;2023-03-01T05:19:13;1.20;1.00
11536;DHT22;5824;49.336;8.652;2023-03-01T05:21:43;1.60;1.00
11536;DHT22;5824;49.336;8.652;2023-03-01T05:24:28;1.10;1.00
11536;DHT22;5824;49.336;8.652;2023-03-01T05:26:54;1.50;1.00
11536;DHT22;5824;49.336;8.652;2023-03-01T05:29:21;1.00;1.00
11536;DHT22;5824;49.336;8.652;2023-03-01T05:31:52;1.50;1.00
11536;DHT22;5824;49.336;8.652;2023-03-01T05:34:19;1.00;1.00
11536;DHT22;5824;49.336;8.652;2023-03-01T05:36:48;1.30;1.00
11536;DHT22;5824;49.336;8.652;2023-03-01T05:39:13;0.80;1.00
11536;DHT22;5824;49.336;8.652;2023-03-01T05:41:39;1.10;1.00
11536;DHT22;5824;49.336;8.652;2023-03-01T05:44:06;1.30;1.00
11536;DHT22;5824;49.336;8.652;2023-03-01T05:46:32;1.10;1.00
11536;DHT22;5824;49.336;8.652;2023-03-01T05:48:57;1.00;1.00
11536;DHT22;5824;49.336;8.652;2023-03-01T05:51:23;1.00;1.00
11536;DHT22;5824;49.336;8.652;2023-03-01T05:53:48;0.80;1.00
11536;DHT22;5824;49.336;8.652;2023-03-01T05:56:14;0.80;1.00
11536;DHT22;5824;49.336;8.652;2023-03-01T05:58:39;1.20;1.00
11536;DHT22;5824;49.336;8.652;2023-03-01T06:01:05;0.90;1.00
11536;DHT22;5824;49.336;8.652;2023-03-01T06:03:30;0.90;1.00
11536;DHT22;5824;49.336;8.652;2023-03-01T06:05:57;1.40;1.00
11536;DHT22;5824;49.336;8.652;2023-03-01T06:08:22;1.00;1.00
11536;DHT22;5824;49.336;8.652;2023-03-01T06:10:49;1.00;1.00
11536;DHT22;5824;49.336;8.652;2023-03-01T06:13:15;1.40;1.00
11536;DHT22;5824;49.336;8.652;2023-03-01T06:15:40;1.60;1.00
11536;DHT22;5824;49.336;8.652;2023-03-01T06:18:05;1.60;1.00
11536;DHT22;5824;49.336;8.652;2023-03-01T06:20:31;1.70;1.00
11536;DHT22;5824;49.336;8.652;2023-03-01T06:22:57;1.60;1.00
11536;DHT22;5824;49.336;8.652;2023-03-01T06:25:25;1.30;1.00
11536;DHT22;5824;49.336;8.652;2023-03-01T06:27:51;1.70;1.00
11536;DHT22;5824;49.336;8.652;2023-03-01T06:30:19;1.30;1.00
11536;DHT22;5824;49.336;8.652;2023-03-01T06:32:45;1.30;1.00
11536;DHT22;5824;49.336;8.652;2023-03-01T06:35:12;1.80;1.00
11536;DHT22;5824;49.336;8.652;2023-03-01T06:37:39;1.80;1.00
11536;DHT22;5824;49.336;8.652;2023-03-01T06:40:05;1.50;1.00
11536;DHT22;5824;49.336;8.652;2023-03-01T06:42:43;1.50;1.00
11536;DHT22;5824;49.336;8.652;2023-03-01T06:45:10;2.00;1.00
11536;DHT22;5824;49.336;8.652;2023-03-01T06:47:35;2.10;1.00
11536;DHT22;5824;49.336;8.652;2023-03-01T06:50:02;1.70;1.00
11536;DHT22;5824;49.336;8.652;2023-03-01T06:52:27;2.20;1.00
11536;DHT22;5824;49.336;8.652;2023-03-01T06:54:53;1.80;1.00
11536;DHT22;5824;49.336;8.652;2023-03-01T06:57:18;2.40;1.00
11536;DHT22;5824;49.336;8.652;2023-03-01T06:59:44;1.90;1.00
11536;DHT22;5824;49.336;8.652;2023-03-01T07:02:11;2.10;1.00
11536;DHT22;5824;49.336;8.652;2023-03-01T07:04:37;1.80;1.00
11536;DHT22;5824;49.336;8.652;2023-03-01T07:07:02;2.10;1.00
11536;DHT22;5824;49.336;8.652;2023-03-01T07:09:28;2.10;1.00
11536;DHT22;5824;49.336;8.652;2023-03-01T07:11:53;2.30;1.00
11536;DHT22;5824;49.336;8.652;2023-03-01T07:14:19;2.20;1.00
11536;DHT22;5824;49.336;8.652;2023-03-01T07:16:45;2.20;1.00
11536;DHT22;5824;49.336;8.652;2023-03-01T07:19:11;2.20;1.00
11536;DHT22;5824;49.336;8.652;2023-03-01T07:21:36;2.90;1.00
11536;DHT22;5824;49.336;8.652;2023-03-01T07:24:05;2.60;1.00
11536;DHT22;5824;49.336;8.652;2023-03-01T07:26:31;2.40;1.00
11536;DHT22;5824;49.336;8.652;2023-03-01T07:28:59;2.80;1.00
11536;DHT22;5824;49.336;8.652;2023-03-01T07:31:25;2.80;1.00
11536;DHT22;5824;49.336;8.652;2023-03-01T07:33:53;2.80;1.00
11536;DHT22;5824;49.336;8.652;2023-03-01T07:36:19;2.80;1.00
11536;DHT22;5824;49.336;8.652;2023-03-01T07:38:44;3.20;1.00
11536;DHT22;5824;49.336;8.652;2023-03-01T07:41:10;2.90;1.00
11536;DHT22;5824;49.336;8.652;2023-03-01T07:43:35;3.40;1.00
11536;DHT22;5824;49.336;8.652;2023-03-01T07:46:02;3.10;1.00
11536;DHT22;5824;49.336;8.652;2023-03-01T07:48:29;3.20;1.00
11536;DHT22;5824;49.336;8.652;2023-03-01T07:50:58;3.30;1.00
11536;DHT22;5824;49.336;8.652;2023-03-01T07:53:24;3.80;1.00
11536;DHT22;5824;49.336;8.652;2023-03-01T07:55:49;3.40;1.00
11536;DHT22;5824;49.336;8.652;2023-03-01T07:58:15;3.50;1.00
11536;DHT22;5824;49.336;8.652;2023-03-01T08:00:40;3.70;1.00
11536;DHT22;5824;49.336;8.652;2023-03-01T08:03:06;3.90;1.00
11536;DHT22;5824;49.336;8.652;2023-03-01T08:05:32;3.60;1.00
11536;DHT22;5824;49.336;8.652;2023-03-01T08:07:57;3.70;1.00
11536;DHT22;5824;49.336;8.652;2023-03-01T08:10:23;3.80;1.00
11536;DHT22;5824;49.336;8.652;2023-03-01T08:12:51;4.20;1.00
11536;DHT22;5824;49.336;8.652;2023-03-01T08:15:17;4.20;1.00
11536;DHT22;5824;49.336;8.652;2023-03-01T08:17:44;3.90;1.00
11536;DHT22;5824;49.336;8.652;2023-03-01T08:20:10;4.00;1.00
11536;DHT22;5824;49.336;8.652;2023-03-01T08:22:37;4.00;1.00
11536;DHT22;5824;49.336;8.652;2023-03-01T08:25:03;4.10;1.00
11536;DHT22;5824;49.336;8.652;2023-03-01T08:27:29;4.20;1.00
11536;DHT22;5824;49.336;8.652;2023-03-01T08:29:54;4.30;1.00
11536;DHT22;5824;49.336;8.652;2023-03-01T08:32:20;4.30;1.00
11536;DHT22;5824;49.336;8.652;2023-03-01T08:34:48;4.40;1.00
11536;DHT22;5824;49.336;8.652;2023-03-01T08:37:14;4.50;1.00
11536;DHT22;5824;49.336;8.652;2023-03-01T08:39:39;4.80;1.00
11536;DHT22;5824;49.336;8.652;2023-03-01T08:42:05;4.50;1.00
11536;DHT22;5824;49.336;8.652;2023-03-01T08:44:30;4.70;1.00
11536;DHT22;5824;49.336;8.652;2023-03-01T08:46:56;4.90;1.00
11536;DHT22;5824;49.336;8.652;2023-03-01T08:49:22;4.90;1.00
11536;DHT22;5824;49.336;8.652;2023-03-01T08:51:48;5.10;1.00
11536;DHT22;5824;49.336;8.652;2023-03-01T08:54:21;5.20;1.00
11536;DHT22;5824;49.336;8.652;2023-03-01T08:56:47;5.40;1.00
11536;DHT22;5824;49.336;8.652;2023-03-01T08:59:14;5.80;1.00
11536;DHT22;5824;49.336;8.652;2023-03-01T09:01:41;7.40;1.00
11536;DHT22;5824;49.336;8.652;2023-03-01T09:04:08;9.30;1.00
11536;DHT22;5824;49.336;8.652;2023-03-01T09:06:35;11.30;1.00
11536;DHT22;5824;49.336;8.652;2023-03-01T09:09:01;12.80;1.00
11536;DHT22;5824;49.336;8.652;2023-03-01T09:11:28;14.20;1.00
11536;DHT22;5824;49.336;8.652;2023-03-01T09:13:53;14.90;1.00
11536;DHT22;5824;49.336;8.652;2023-03-01T09:16:21;15.70;1.00
11536;DHT22;5824;49.336;8.652;2023-03-01T09:18:56;16.70;1.00
11536;DHT22;5824;49.336;8.652;2023-03-01T09:21:22;16.60;1.00
11536;DHT22;5824;49.336;8.652;2023-03-01T09:23:48;16.60;1.00
11536;DHT22;5824;49.336;8.652;2023-03-01T09:26:17;16.80;1.00
11536;DHT22;5824;49.336;8.652;2023-03-01T09:28:44;16.70;1.00
11536;DHT22;5824;49.336;8.652;2023-03-01T09:31:11;16.20;1.00
11536;DHT22;5824;49.336;8.652;2023-03-01T09:33:39;16.40;1.00
11536;DHT22;5824;49.336;8.652;2023-03-01T09:36:06;16.60;1.00
11536;DHT22;5824;49.336;8.652;2023-03-01T09:38:32;17.00;1.00
11536;DHT22;5824;49.336;8.652;2023-03-01T09:40:59;17.40;1.00
11536;DHT22;5824;49.336;8.652;2023-03-01T09:43:31;17.30;1.00
11536;DHT22;5824;49.336;8.652;2023-03-01T09:46:04;17.50;1.00
11536;DHT22;5824;49.336;8.652;2023-03-01T09:48:37;17.40;1.00
11536;DHT22;5824;49.336;8.652;2023-03-01T09:51:12;18.70;1.00
11536;DHT22;5824;49.336;8.652;2023-03-01T09:53:39;18.70;1.00
11536;DHT22;5824;49.336;8.652;2023-03-01T09:56:19;19.70;1.00
11536;DHT22;5824;49.336;8.652;2023-03-01T09:59:11;20.80;1.00
11536;DHT22;5824;49.336;8.652;2023-03-01T10:04:48;20.70;1.00
11536;DHT22;5824;49.336;8.652;2023-03-01T10:07:20;20.50;1.00
11536;DHT22;5824;49.336;8.652;2023-03-01T10:09:47;21.00;1.00
11536;DHT22;5824;49.336;8.652;2023-03-01T10:12:25;21.70;1.00
11536;DHT22;5824;49.336;8.652;2023-03-01T10:15:34;22.00;1.00
11536;DHT22;5824;49.336;8.652;2023-03-01T10:17:50;22.20;1.00
11536;DHT22;5824;49.336;8.652;2023-03-01T10:20:45;22.70;1.00
11536;DHT22;5824;49.336;8.652;2023-03-01T10:23:12;22.70;1.00
11536;DHT22;5824;49.336;8.652;2023-03-01T10:25:59;23.80;1.00
11536;DHT22;5824;49.336;8.652;2023-03-01T10:31:32;24.80;1.00
11536;DHT22;5824;49.336;8.652;2023-03-01T10:34:04;25.30;1.00
11536;DHT22;5824;49.336;8.652;2023-03-01T10:36:33;26.00;1.00
11536;DHT22;5824;49.336;8.652;2023-03-01T10:38:59;26.00;1.00
11536;DHT22;5824;49.336;8.652;2023-03-01T10:41:29;25.80;1.00
11536;DHT22;5824;49.336;8.652;2023-03-01T10:43:56;25.70;1.00
11536;DHT22;5824;49.336;8.652;2023-03-01T10:46:28;25.60;1.00
11536;DHT22;5824;49.336;8.652;2023-03-01T10:49:14;25.00;1.00
11536;DHT22;5824;49.336;8.652;2023-03-01T10:51:42;25.00;1.00
11536;DHT22;5824;49.336;8.652;2023-03-01T10:56:53;26.00;1.00
11536;DHT22;5824;49.336;8.652;2023-03-01T10:59:38;25.90;1.00
11536;DHT22;5824;49.336;8.652;2023-03-01T11:02:16;25.90;1.00
11536;DHT22;5824;49.336;8.652;2023-03-01T11:07:26;26.90;1.00
11536;DHT22;5824;49.336;8.652;2023-03-01T11:09:52;27.00;1.00
11536;DHT22;5824;49.336;8.652;2023-03-01T11:12:17;26.80;1.00
11536;DHT22;5824;49.336;8.652;2023-03-01T11:14:51;26.10;1.00
11536;DHT22;5824;49.336;8.652;2023-03-01T11:17:29;25.60;1.00
11536;DHT22;5824;49.336;8.652;2023-03-01T11:20:15;26.50;1.00
11536;DHT22;5824;49.336;8.652;2023-03-01T11:22:49;27.20;1.00
11536;DHT22;5824;49.336;8.652;2023-03-01T11:25:17;28.10;1.00
11536;DHT22;5824;49.336;8.652;2023-03-01T11:27:45;28.00;1.00
11536;DHT22;5824;49.336;8.652;2023-03-01T11:30:32;28.50;1.00
11536;DHT22;5824;49.336;8.652;2023-03-01T11:33:12;29.00;1.00
11536;DHT22;5824;49.336;8.652;2023-03-01T11:35:44;27.30;1.00
11536;DHT22;5824;49.336;8.652;2023-03-01T11:38:26;27.30;1.00
11536;DHT22;5824;49.336;8.652;2023-03-01T11:51:41;26.10;1.00
11536;DHT22;5824;49.336;8.652;2023-03-01T11:54:20;26.40;1.00
11536;DHT22;5824;49.336;8.652;2023-03-01T11:57:07;27.20;1.00
11536;DHT22;5824;49.336;8.652;2023-03-01T12:00:02;27.50;1.00
11536;DHT22;5824;49.336;8.652;2023-03-01T12:02:37;28.10;1.00
11536;DHT22;5824;49.336;8.652;2023-03-01T12:10:29;29.10;1.00
11536;DHT22;5824;49.336;8.652;2023-03-01T12:15:58;28.40;1.00
11536;DHT22;5824;49.336;8.652;2023-03-01T12:18:38;28.50;1.00
11536;DHT22;5824;49.336;8.652;2023-03-01T12:24:27;29.30;1.00
11536;DHT22;5824;49.336;8.652;2023-03-01T12:27:17;29.30;1.00
11536;DHT22;5824;49.336;8.652;2023-03-01T12:38:30;29.50;1.00
11536;DHT22;5824;49.336;8.652;2023-03-01T12:41:11;29.90;1.00
11536;DHT22;5824;49.336;8.652;2023-03-01T12:49:42;29.80;1.00
11536;DHT22;5824;49.336;8.652;2023-03-01T12:54:38;29.80;1.00
11536;DHT22;5824;49.336;8.652;2023-03-01T12:57:18;29.90;1.00
11536;DHT22;5824;49.336;8.652;2023-03-01T13:00:03;29.70;1.00
11536;DHT22;5824;49.336;8.652;2023-03-01T13:02:45;28.80;1.00
11536;DHT22;5824;49.336;8.652;2023-03-01T13:05:31;27.50;1.00
11536;DHT22;5824;49.336;8.652;2023-03-01T13:08:27;27.50;1.00
11536;DHT22;5824;49.336;8.652;2023-03-01T13:11:01;27.40;1.00
11536;DHT22;5824;49.336;8.652;2023-03-01T13:13:28;28.50;1.00
11536;DHT22;5824;49.336;8.652;2023-03-01T13:15:55;28.60;1.00
11536;DHT22;5824;49.336;8.652;2023-03-01T13:20:50;27.80;1.00
11536;DHT22;5824;49.336;8.652;2023-03-01T13:31:00;26.60;1.00
11536;DHT22;5824;49.336;8.652;2023-03-01T13:35:53;26.80;1.00
11536;DHT22;5824;49.336;8.652;2023-03-01T13:46:48;27.90;1.00
11536;DHT22;5824;49.336;8.652;2023-03-01T13:49:16;28.20;1.00
11536;DHT22;5824;49.336;8.652;2023-03-01T13:51:47;27.80;1.00
11536;DHT22;5824;49.336;8.652;2023-03-01T13:54:14;26.20;1.00
11536;DHT22;5824;49.336;8.652;2023-03-01T13:56:41;26.50;1.00
11536;DHT22;5824;49.336;8.652;2023-03-01T13:59:22;25.10;1.00
11536;DHT22;5824;49.336;8.652;2023-03-01T14:01:55;23.80;1.00
11536;DHT22;5824;49.336;8.652;2023-03-01T14:04:25;23.20;1.00
11536;DHT22;5824;49.336;8.652;2023-03-01T14:06:52;23.10;1.00
11536;DHT22;5824;49.336;8.652;2023-03-01T14:09:37;23.00;1.00
11536;DHT22;5824;49.336;8.652;2023-03-01T14:17:35;21.70;1.00
11536;DHT22;5824;49.336;8.652;2023-03-01T14:20:37;20.20;1.00
11536;DHT22;5824;49.336;8.652;2023-03-01T14:23:13;19.50;1.00
11536;DHT22;5824;49.336;8.652;2023-03-01T14:25:47;18.70;1.00
11536;DHT22;5824;49.336;8.652;2023-03-01T14:28:17;18.10;1.00
11536;DHT22;5824;49.336;8.652;2023-03-01T14:30:49;17.30;1.00
11536;DHT22;5824;49.336;8.652;2023-03-01T14:38:44;15.30;1.00
11536;DHT22;5824;49.336;8.652;2023-03-01T14:41:40;14.90;1.00
11536;DHT22;5824;49.336;8.652;2023-03-01T14:44:11;14.60;1.00
11536;DHT22;5824;49.336;8.652;2023-03-01T14:46:40;14.30;1.00
11536;DHT22;5824;49.336;8.652;2023-03-01T14:49:18;14.20;1.00
11536;DHT22;5824;49.336;8.652;2023-03-01T14:52:01;14.30;1.00
11536;DHT22;5824;49.336;8.652;2023-03-01T14:54:35;14.40;1.00
11536;DHT22;5824;49.336;8.652;2023-03-01T14:57:03;14.00;1.00
11536;DHT22;5824;49.336;8.652;2023-03-01T14:59:28;13.60;1.00
11536;DHT22;5824;49.336;8.652;2023-03-01T15:01:56;13.60;1.00
11536;DHT22;5824;49.336;8.652;2023-03-01T15:04:23;13.60;1.00
11536;DHT22;5824;49.336;8.652;2023-03-01T15:06:52;13.50;1.00
11536;DHT22;5824;49.336;8.652;2023-03-01T15:09:18;13.30;1.00
11536;DHT22;5824;49.336;8.652;2023-03-01T15:11:44;13.00;1.00
11536;DHT22;5824;49.336;8.652;2023-03-01T15:14:39;12.80;1.00
11536;DHT22;5824;49.336;8.652;2023-03-01T15:19:46;12.30;1.00
11536;DHT22;5824;49.336;8.652;2023-03-01T15:22:15;12.40;1.00
11536;DHT22;5824;49.336;8.652;2023-03-01T15:24:41;12.30;1.00
11536;DHT22;5824;49.336;8.652;2023-03-01T15:27:19;12.30;1.00
11536;DHT22;5824;49.336;8.652;2023-03-01T15:29:57;12.20;1.00
11536;DHT22;5824;49.336;8.652;2023-03-01T15:32:30;12.00;1.00
11536;DHT22;5824;49.336;8.652;2023-03-01T15:34:58;11.90;1.00
11536;DHT22;5824;49.336;8.652;2023-03-01T15:40:25;11.70;1.00
11536;DHT22;5824;49.336;8.652;2023-03-01T15:43:01;11.60;1.00
11536;DHT22;5824;49.336;8.652;2023-03-01T15:45:29;11.50;1.00
11536;DHT22;5824;49.336;8.652;2023-03-01T15:48:00;11.30;1.00
11536;DHT22;5824;49.336;8.652;2023-03-01T15:50:30;11.30;1.00
11536;DHT22;5824;49.336;8.652;2023-03-01T15:52:58;11.20;1.00
11536;DHT22;5824;49.336;8.652;2023-03-01T15:55:27;11.10;1.00
11536;DHT22;5824;49.336;8.652;2023-03-01T15:58:09;11.00;1.00
11536;DHT22;5824;49.336;8.652;2023-03-01T16:00:35;11.00;1.00
11536;DHT22;5824;49.336;8.652;2023-03-01T16:03:01;11.00;1.00
11536;DHT22;5824;49.336;8.652;2023-03-01T16:05:29;10.90;1.00
11536;DHT22;5824;49.336;8.652;2023-03-01T16:07:56;10.90;1.00
11536;DHT22;5824;49.336;8.652;2023-03-01T16:10:21;10.80;1.00
11536;DHT22;5824;49.336;8.652;2023-03-01T16:12:47;10.80;1.00
11536;DHT22;5824;49.336;8.652;2023-03-01T16:15:25;10.80;1.00
11536;DHT22;5824;49.336;8.652;2023-03-01T16:20:19;10.60;1.00
11536;DHT22;5824;49.336;8.652;2023-03-01T16:22:46;10.60;1.00
11536;DHT22;5824;49.336;8.652;2023-03-01T16:25:14;10.50;1.00
11536;DHT22;5824;49.336;8.652;2023-03-01T16:27:44;10.40;1.00
11536;DHT22;5824;49.336;8.652;2023-03-01T16:30:11;10.30;1.00
11536;DHT22;5824;49.336;8.652;2023-03-01T16:32:39;10.20;1.00
11536;DHT22;5824;49.336;8.652;2023-03-01T16:35:08;10.10;1.00
11536;DHT22;5824;49.336;8.652;2023-03-01T16:37:35;10.00;1.00
11536;DHT22;5824;49.336;8.652;2023-03-01T16:40:00;9.90;1.00
11536;DHT22;5824;49.336;8.652;2023-03-01T16:42:26;9.80;1.00
11536;DHT22;5824;49.336;8.652;2023-03-01T16:44:55;9.80;1.00
11536;DHT22;5824;49.336;8.652;2023-03-01T16:47:21;9.70;1.00
11536;DHT22;5824;49.336;8.652;2023-03-01T16:49:47;9.60;1.00
11536;DHT22;5824;49.336;8.652;2023-03-01T16:52:16;10.00;1.00
11536;DHT22;5824;49.336;8.652;2023-03-01T16:54:41;9.40;1.00
11536;DHT22;5824;49.336;8.652;2023-03-01T16:57:07;9.30;1.00
11536;DHT22;5824;49.336;8.652;2023-03-01T16:59:32;9.30;1.00
11536;DHT22;5824;49.336;8.652;2023-03-01T17:01:58;9.20;1.00
11536;DHT22;5824;49.336;8.652;2023-03-01T17:04:24;9.10;1.00
11536;DHT22;5824;49.336;8.652;2023-03-01T17:06:49;9.00;1.00
11536;DHT22;5824;49.336;8.652;2023-03-01T17:09:15;8.90;1.00
11536;DHT22;5824;49.336;8.652;2023-03-01T17:11:42;8.80;1.00
11536;DHT22;5824;49.336;8.652;2023-03-01T17:14:08;8.80;1.00
11536;DHT22;5824;49.336;8.652;2023-03-01T17:16:33;8.70;1.00
11536;DHT22;5824;49.336;8.652;2023-03-01T17:19:00;8.70;1.00
11536;DHT22;5824;49.336;8.652;2023-03-01T17:21:26;8.60;1.00
11536;DHT22;5824;49.336;8.652;2023-03-01T17:23:55;8.60;1.00
11536;DHT22;5824;49.336;8.652;2023-03-01T17:26:20;8.50;1.00
11536;DHT22;5824;49.336;8.652;2023-03-01T17:28:46;8.40;1.00
11536;DHT22;5824;49.336;8.652;2023-03-01T17:31:18;8.40;1.00
11536;DHT22;5824;49.336;8.652;2023-03-01T17:33:44;8.40;1.00
11536;DHT22;5824;49.336;8.652;2023-03-01T17:36:09;8.30;1.00
11536;DHT22;5824;49.336;8.652;2023-03-01T17:38:35;8.30;1.00
11536;DHT22;5824;49.336;8.652;2023-03-01T17:41:02;8.20;1.00
11536;DHT22;5824;49.336;8.652;2023-03-01T17:43:29;8.20;1.00
11536;DHT22;5824;49.336;8.652;2023-03-01T17:45:55;8.10;1.00
11536;DHT22;5824;49.336;8.652;2023-03-01T17:48:22;8.10;1.00
11536;DHT22;5824;49.336;8.652;2023-03-01T17:50:48;8.10;1.00
11536;DHT22;5824;49.336;8.652;2023-03-01T17:53:14;8.00;1.00
11536;DHT22;5824;49.336;8.652;2023-03-01T17:55:41;8.00;1.00
11536;DHT22;5824;49.336;8.652;2023-03-01T17:58:10;7.90;1.00